createdAt,value
2019-02-26T00:02:21.589Z,30.93
2019-02-26T00:04:54.076Z,26.77
2019-02-26T00:07:25.185Z,32.33
2019-02-26T00:09:55.705Z,30.37
2019-02-26T00:12:26.387Z,27.37
2019-02-26T00:14:57.502Z,24.50
2019-02-26T00:17:28.145Z,28.40
2019-02-26T00:19:57.662Z,28.90
2019-02-26T00:22:27.176Z,27.17
2019-02-26T00:24:56.676Z,27.53
2019-02-26T00:27:28.138Z,29.73
2019-02-26T00:29:57.375Z,28.37
2019-02-26T00:32:26.879Z,28.33
2019-02-26T00:34:58.016Z,33.93
2019-02-26T00:37:30.589Z,31.00
2019-02-26T00:39:59.761Z,27.23
2019-02-26T00:42:31.375Z,28.83
2019-02-26T00:45:02.887Z,29.57
2019-02-26T00:47:33.813Z,31.00
2019-02-26T00:50:02.968Z,28.30
2019-02-26T00:52:33.086Z,29.53
2019-02-26T00:55:05.417Z,24.17
2019-02-26T00:57:36.472Z,27.27
2019-02-26T01:00:12.845Z,31.40
2019-02-26T01:02:42.327Z,27.20
2019-02-26T01:05:15.072Z,31.50
2019-02-26T01:07:46.744Z,28.73
2019-02-26T01:10:18.470Z,29.33
2019-02-26T01:12:47.162Z,31.03
2019-02-26T01:15:18.097Z,33.53
2019-02-26T01:17:47.647Z,29.53
2019-02-26T01:20:19.697Z,44.73
2019-02-26T01:22:49.080Z,28.27
2019-02-26T01:25:21.046Z,32.97
2019-02-26T01:27:51.093Z,34.83
2019-02-26T01:30:23.850Z,32.50
2019-02-26T01:32:52.234Z,37.53
2019-02-26T01:35:22.681Z,31.33
2019-02-26T01:37:54.067Z,30.27
2019-02-26T01:40:25.667Z,31.23
2019-02-26T01:42:57.678Z,30.50
2019-02-26T01:45:27.131Z,28.43
2019-02-26T01:47:57.368Z,33.30
2019-02-26T01:50:28.428Z,30.77
2019-02-26T01:52:59.209Z,33.20
2019-02-26T01:55:29.375Z,24.40
2019-02-26T01:57:59.289Z,31.53
2019-02-26T02:00:28.879Z,32.07
2019-02-26T02:02:58.374Z,24.90
2019-02-26T02:05:29.481Z,35.50
2019-02-26T02:07:59.092Z,33.20
2019-02-26T02:10:28.657Z,32.60
2019-02-26T02:13:01.935Z,31.30
2019-02-26T02:15:29.547Z,32.93
2019-02-26T02:17:59.588Z,30.90
2019-02-26T02:20:30.339Z,31.47
2019-02-26T02:23:00.918Z,36.33
2019-02-26T02:25:33.208Z,29.77
2019-02-26T02:28:04.429Z,33.47
2019-02-26T02:30:35.558Z,29.47
2019-02-26T02:33:04.907Z,29.77
2019-02-26T02:35:34.790Z,30.57
2019-02-26T02:38:04.945Z,35.10
2019-02-26T02:40:34.713Z,36.20
2019-02-26T02:43:07.555Z,30.33
2019-02-26T02:45:35.462Z,36.03
2019-02-26T02:48:06.216Z,25.50
2019-02-26T02:50:36.242Z,34.57
2019-02-26T02:53:05.778Z,45.10
2019-02-26T02:55:37.748Z,34.53
2019-02-26T02:58:06.842Z,31.80
2019-02-26T03:00:36.432Z,31.70
2019-02-26T03:03:05.973Z,29.27
2019-02-26T03:05:38.020Z,29.40
2019-02-26T03:08:08.143Z,30.17
2019-02-26T03:10:40.093Z,31.87
2019-02-26T03:13:09.118Z,29.80
2019-02-26T03:15:38.644Z,35.27
2019-02-26T03:18:11.416Z,35.57
2019-02-26T03:20:40.398Z,36.70
2019-02-26T03:23:15.112Z,30.70
2019-02-26T03:25:42.042Z,27.27
2019-02-26T03:28:12.536Z,33.10
2019-02-26T03:30:44.277Z,30.60
2019-02-26T03:33:14.246Z,35.10
2019-02-26T03:35:43.769Z,34.03
2019-02-26T03:38:15.033Z,31.60
2019-02-26T03:40:44.516Z,32.00
2019-02-26T03:43:16.123Z,32.50
2019-02-26T03:45:47.364Z,33.40
2019-02-26T03:48:19.637Z,31.80
2019-02-26T03:50:47.678Z,27.43
2019-02-26T03:53:17.187Z,33.17
2019-02-26T03:55:46.755Z,34.93
2019-02-26T03:58:16.278Z,36.73
2019-02-26T04:00:46.916Z,31.47
2019-02-26T04:03:17.436Z,38.17
2019-02-26T04:05:47.354Z,30.83
2019-02-26T04:08:19.106Z,33.07
2019-02-26T04:10:49.958Z,33.80
2019-02-26T04:13:19.301Z,53.57
2019-02-26T04:15:51.516Z,34.67
2019-02-26T04:18:20.027Z,35.50
2019-02-26T04:20:49.580Z,32.30
2019-02-26T04:23:20.041Z,31.20
2019-02-26T04:25:54.051Z,32.77
2019-02-26T04:28:36.330Z,35.30
2019-02-26T04:31:07.669Z,44.13
2019-02-26T04:33:48.918Z,49.40
2019-02-26T04:36:24.478Z,36.83
2019-02-26T04:39:29.969Z,34.43
2019-02-26T04:42:15.367Z,38.07
2019-02-26T04:44:52.387Z,33.40
2019-02-26T04:47:24.057Z,34.27
2019-02-26T04:49:54.396Z,37.63
2019-02-26T04:52:24.234Z,36.23
2019-02-26T04:54:53.797Z,37.70
2019-02-26T04:57:23.287Z,33.50
2019-02-26T04:59:52.880Z,34.43
2019-02-26T05:02:22.394Z,37.30
2019-02-26T05:04:51.887Z,32.90
2019-02-26T05:07:21.427Z,38.27
2019-02-26T05:09:53.145Z,30.90
2019-02-26T05:12:25.070Z,33.83
2019-02-26T05:14:53.309Z,36.97
2019-02-26T05:17:26.360Z,33.87
2019-02-26T05:19:54.008Z,38.93
2019-02-26T05:22:25.568Z,40.47
2019-02-26T05:24:54.861Z,35.80
2019-02-26T05:27:25.063Z,35.10
2019-02-26T05:29:54.880Z,35.10
2019-02-26T05:32:27.211Z,40.60
2019-02-26T05:34:55.659Z,35.87
2019-02-26T05:37:28.563Z,29.87
2019-02-26T05:39:56.365Z,52.57
2019-02-26T05:42:26.198Z,38.23
2019-02-26T05:44:59.140Z,36.60
2019-02-26T05:47:26.920Z,34.23
2019-02-26T05:49:56.425Z,37.23
2019-02-26T05:52:27.263Z,36.43
2019-02-26T05:54:57.155Z,36.37
2019-02-26T05:57:32.362Z,33.83
2019-02-26T05:59:58.105Z,39.50
2019-02-26T06:02:27.676Z,41.03
2019-02-26T06:04:57.160Z,40.43
2019-02-26T06:07:29.787Z,32.90
2019-02-26T06:09:59.239Z,28.83
2019-02-26T06:12:32.453Z,40.40
2019-02-26T06:15:04.218Z,40.17
2019-02-26T06:17:31.251Z,33.77
2019-02-26T06:20:05.626Z,34.80
2019-02-26T06:22:35.056Z,35.50
2019-02-26T06:25:09.606Z,38.43
2019-02-26T06:27:35.999Z,39.83
2019-02-26T06:30:11.548Z,32.97
2019-02-26T06:32:42.140Z,33.20
2019-02-26T06:35:19.410Z,31.67
2019-02-26T06:37:48.350Z,36.63
2019-02-26T06:40:18.024Z,36.70
2019-02-26T06:42:47.545Z,32.23
2019-02-26T06:45:17.166Z,34.50
2019-02-26T06:47:48.653Z,32.60
2019-02-26T06:50:18.797Z,32.80
2019-02-26T06:52:50.781Z,40.83
2019-02-26T06:55:19.885Z,35.90
2019-02-26T06:57:50.824Z,39.30
2019-02-26T07:00:22.301Z,39.17
2019-02-26T07:02:51.803Z,39.20
2019-02-26T07:05:23.842Z,31.80
2019-02-26T07:07:54.471Z,36.40
2019-02-26T07:10:26.225Z,41.63
2019-02-26T07:12:54.960Z,38.17
2019-02-26T07:15:28.689Z,38.30
2019-02-26T07:18:00.023Z,45.30
2019-02-26T07:20:33.825Z,39.30
2019-02-26T07:22:58.363Z,36.80
2019-02-26T07:25:27.867Z,40.53
2019-02-26T07:27:58.902Z,37.10
2019-02-26T07:30:28.883Z,37.67
2019-02-26T07:32:58.379Z,34.87
2019-02-26T07:35:28.841Z,45.77
2019-02-26T07:38:01.188Z,37.37
2019-02-26T07:40:38.485Z,35.87
2019-02-26T07:43:38.729Z,34.03
2019-02-26T07:46:12.670Z,39.70
2019-02-26T07:49:04.594Z,37.77
2019-02-26T07:51:43.046Z,34.90
2019-02-26T07:54:14.672Z,40.90
2019-02-26T07:56:44.166Z,42.00
2019-02-26T07:59:15.002Z,35.73
2019-02-26T08:01:45.330Z,38.30
2019-02-26T08:04:18.251Z,49.00
2019-02-26T08:06:47.129Z,33.27
2019-02-26T08:09:18.933Z,37.03
2019-02-26T08:11:49.077Z,47.50
2019-02-26T08:14:20.876Z,40.17
2019-02-26T08:16:53.620Z,45.87
2019-02-26T08:19:21.068Z,36.07
2019-02-26T08:21:52.629Z,46.97
2019-02-26T08:24:24.507Z,43.63
2019-02-26T08:26:53.006Z,44.10
2019-02-26T08:29:24.528Z,40.30
2019-02-26T08:31:54.584Z,38.07
2019-02-26T08:34:24.927Z,44.17
2019-02-26T08:36:54.440Z,40.33
2019-02-26T08:39:23.936Z,38.67
2019-02-26T08:42:02.916Z,35.87
2019-02-26T08:44:32.516Z,43.00
2019-02-26T08:47:06.194Z,36.17
2019-02-26T08:49:35.120Z,39.23
2019-02-26T08:52:04.429Z,43.10
2019-02-26T08:54:35.650Z,41.77
2019-02-26T08:57:05.341Z,42.73
2019-02-26T08:59:34.847Z,36.73
2019-02-26T09:02:04.437Z,46.33
2019-02-26T09:04:35.160Z,35.40
2019-02-26T09:07:05.236Z,37.90
2019-02-26T09:09:34.942Z,52.07
2019-02-26T09:12:04.463Z,40.90
2019-02-26T09:14:37.314Z,44.23
2019-02-26T09:17:05.360Z,46.73
2019-02-26T09:19:35.452Z,44.13
2019-02-26T09:22:09.672Z,38.47
2019-02-26T09:24:36.862Z,37.43
2019-02-26T09:27:06.358Z,38.20
2019-02-26T09:29:36.643Z,39.10
2019-02-26T09:32:09.267Z,34.33
2019-02-26T09:34:39.937Z,43.10
2019-02-26T09:37:09.809Z,43.60
2019-02-26T09:39:39.311Z,37.53
2019-02-26T09:42:09.184Z,42.60
2019-02-26T09:44:38.950Z,44.77
2019-02-26T09:47:08.463Z,46.70
2019-02-26T09:49:38.010Z,44.13
2019-02-26T09:52:07.507Z,44.80
2019-02-26T09:54:40.259Z,46.63
2019-02-26T09:57:08.225Z,46.57
2019-02-26T09:59:38.500Z,44.00
2019-02-26T10:02:09.043Z,43.67
2019-02-26T10:04:38.608Z,41.43
2019-02-26T10:07:09.873Z,48.70
2019-02-26T10:09:40.864Z,46.63
2019-02-26T10:12:12.881Z,40.60
2019-02-26T10:14:41.765Z,43.60
2019-02-26T10:17:12.427Z,41.53
2019-02-26T10:19:43.044Z,42.07
2019-02-26T10:22:13.554Z,42.50
2019-02-26T10:24:43.322Z,48.87
2019-02-26T10:27:14.469Z,46.73
2019-02-26T10:29:45.110Z,40.63
2019-02-26T10:32:16.214Z,38.00
2019-02-26T10:34:45.780Z,34.30
2019-02-26T10:37:15.266Z,35.10
2019-02-26T10:39:47.320Z,48.70
2019-02-26T10:42:18.028Z,46.50
2019-02-26T10:44:47.748Z,40.57
2019-02-26T10:47:18.192Z,39.20
2019-02-26T10:49:49.076Z,38.27
2019-02-26T10:52:19.924Z,50.47
2019-02-26T10:54:50.207Z,39.90
2019-02-26T10:57:19.702Z,36.10
2019-02-26T10:59:49.255Z,42.07
2019-02-26T11:02:20.747Z,40.03
2019-02-26T11:04:53.463Z,38.70
2019-02-26T11:07:21.808Z,41.67
2019-02-26T11:09:53.617Z,37.90
2019-02-26T11:12:23.482Z,39.90
2019-02-26T11:14:55.771Z,30.80
2019-02-26T11:17:26.332Z,37.93
2019-02-26T11:19:58.450Z,36.50
2019-02-26T11:22:28.064Z,43.37
2019-02-26T11:24:58.625Z,48.60
2019-02-26T11:27:29.003Z,31.43
2019-02-26T11:29:59.539Z,36.30
2019-02-26T11:32:30.179Z,31.20
2019-02-26T11:35:02.497Z,31.93
2019-02-26T11:37:32.227Z,41.07
2019-02-26T11:40:03.625Z,33.33
2019-02-26T11:42:33.334Z,38.70
2019-02-26T11:45:02.880Z,27.97
2019-02-26T11:47:34.575Z,27.63
2019-02-26T11:50:06.953Z,31.50
2019-02-26T11:52:36.518Z,32.07
2019-02-26T11:55:09.449Z,38.53
2019-02-26T11:57:39.826Z,32.90
2019-02-26T12:00:25.551Z,29.60
2019-02-26T12:02:54.100Z,29.80
2019-02-26T12:05:30.795Z,34.90
2019-02-26T12:07:56.432Z,36.53
2019-02-26T12:10:29.518Z,31.83
2019-02-26T12:13:00.033Z,38.60
2019-02-26T12:15:30.281Z,30.13
2019-02-26T12:18:00.748Z,31.50
2019-02-26T12:20:31.017Z,29.03
2019-02-26T12:23:00.661Z,31.00
2019-02-26T12:25:30.158Z,32.93
2019-02-26T12:28:00.180Z,39.13
2019-02-26T12:30:32.359Z,25.57
2019-02-26T12:33:02.277Z,24.50
2019-02-26T12:35:33.470Z,22.90
2019-02-26T12:38:17.368Z,22.80
2019-02-26T12:40:34.257Z,26.20
2019-02-26T12:43:06.594Z,23.27
2019-02-26T12:45:38.690Z,23.10
2019-02-26T12:48:10.285Z,20.20
2019-02-26T12:50:40.579Z,24.13
2019-02-26T12:53:12.567Z,20.10
2019-02-26T12:55:42.203Z,19.03
2019-02-26T12:58:15.251Z,19.63
2019-02-26T13:00:43.513Z,14.53
2019-02-26T13:03:15.678Z,16.50
2019-02-26T13:05:46.382Z,17.57
2019-02-26T13:08:19.596Z,14.97
2019-02-26T13:10:51.544Z,19.70
2019-02-26T13:13:20.076Z,16.63
2019-02-26T13:15:49.584Z,15.50
2019-02-26T13:18:19.076Z,18.20
2019-02-26T13:20:52.157Z,15.97
2019-02-26T13:23:21.800Z,17.97
2019-02-26T13:25:51.413Z,19.00
2019-02-26T13:28:21.062Z,13.23
2019-02-26T13:30:50.553Z,15.13
2019-02-26T13:33:26.379Z,12.50
2019-02-26T13:35:58.198Z,9.30
2019-02-26T13:38:24.783Z,13.47
2019-02-26T13:41:02.496Z,16.07
2019-02-26T13:43:26.308Z,19.53
2019-02-26T13:45:55.818Z,12.60
2019-02-26T13:48:25.341Z,17.57
2019-02-26T13:50:54.844Z,13.57
2019-02-26T13:53:24.336Z,13.20
2019-02-26T13:55:53.881Z,16.17
2019-02-26T13:58:23.384Z,15.13
2019-02-26T14:00:52.970Z,13.90
2019-02-26T14:03:22.499Z,22.20
2019-02-26T14:05:51.989Z,18.60
2019-02-26T14:08:21.561Z,20.77
2019-02-26T14:10:51.214Z,15.73
2019-02-26T14:13:20.997Z,16.03
2019-02-26T14:15:50.495Z,16.07
2019-02-26T14:18:20.017Z,13.93
2019-02-26T14:20:49.536Z,21.20
2019-02-26T14:23:19.345Z,14.07
2019-02-26T14:25:48.845Z,13.93
2019-02-26T14:28:18.348Z,16.13
2019-02-26T14:30:47.890Z,14.33
2019-02-26T14:33:17.386Z,14.30
2019-02-26T14:35:46.873Z,14.60
2019-02-26T14:38:16.400Z,16.87
2019-02-26T14:40:45.926Z,24.30
2019-02-26T14:43:15.796Z,17.27
2019-02-26T14:45:45.357Z,18.20
2019-02-26T14:48:15.052Z,17.57
2019-02-26T14:50:44.621Z,17.30
2019-02-26T14:53:14.129Z,15.03
2019-02-26T14:55:43.664Z,13.20
2019-02-26T14:58:13.177Z,14.70
2019-02-26T15:00:42.659Z,21.50
2019-02-26T15:03:12.464Z,12.10
2019-02-26T15:05:41.967Z,16.47
2019-02-26T15:08:11.491Z,14.30
2019-02-26T15:10:41.398Z,14.93
2019-02-26T15:13:11.088Z,20.80
2019-02-26T15:15:40.591Z,12.10
2019-02-26T15:18:10.136Z,13.17
2019-02-26T15:20:39.646Z,15.20
2019-02-26T15:23:09.133Z,18.70
2019-02-26T15:25:38.672Z,18.17
2019-02-26T15:28:08.202Z,27.20
2019-02-26T15:30:37.689Z,16.13
2019-02-26T15:33:11.086Z,18.00
2019-02-26T15:35:39.389Z,20.77
2019-02-26T15:38:08.870Z,31.60
2019-02-26T15:40:38.389Z,17.10
2019-02-26T15:43:07.925Z,19.70
2019-02-26T15:45:37.596Z,20.77
2019-02-26T15:48:07.149Z,20.20
2019-02-26T15:50:37.691Z,21.00
2019-02-26T15:53:07.864Z,20.00
2019-02-26T15:55:37.378Z,25.97
2019-02-26T15:58:07.033Z,18.23
2019-02-26T16:00:38.016Z,20.73
2019-02-26T16:03:08.932Z,24.23
2019-02-26T16:05:40.467Z,22.83
2019-02-26T16:08:10.362Z,30.87
2019-02-26T16:10:39.903Z,24.50
2019-02-26T16:13:10.343Z,29.00
2019-02-26T16:15:39.982Z,24.40
2019-02-26T16:18:09.492Z,22.23
2019-02-26T16:20:38.997Z,27.43
2019-02-26T16:23:09.629Z,22.87
2019-02-26T16:25:39.172Z,21.07
2019-02-26T16:28:08.740Z,30.80
2019-02-26T16:30:38.516Z,23.80
2019-02-26T16:33:08.239Z,21.37
2019-02-26T16:35:37.749Z,21.37
2019-02-26T16:38:07.249Z,29.70
2019-02-26T16:40:36.775Z,28.80
2019-02-26T16:43:06.446Z,24.97
2019-02-26T16:45:35.977Z,26.93
2019-02-26T16:48:05.482Z,25.97
2019-02-26T16:50:34.977Z,31.87
2019-02-26T16:53:04.887Z,45.80
2019-02-26T16:55:34.656Z,28.57
2019-02-26T16:58:04.342Z,25.67
2019-02-26T17:00:33.911Z,26.80
2019-02-26T17:03:04.704Z,20.67
2019-02-26T17:05:37.258Z,25.60
2019-02-26T17:08:06.753Z,19.53
2019-02-26T17:10:36.244Z,22.80
2019-02-26T17:13:05.868Z,21.97
2019-02-26T17:15:36.496Z,25.53
2019-02-26T17:18:09.324Z,22.93
2019-02-26T17:20:37.551Z,22.00
2019-02-26T17:23:07.041Z,22.00
2019-02-26T17:25:37.528Z,22.00
2019-02-26T17:28:07.038Z,19.80
2019-02-26T17:30:38.241Z,23.37
2019-02-26T17:33:11.346Z,21.43
2019-02-26T17:35:40.010Z,23.73
2019-02-26T17:38:09.528Z,28.27
2019-02-26T17:40:39.047Z,20.13
2019-02-26T17:43:08.611Z,19.50
2019-02-26T17:45:38.196Z,26.13
2019-02-26T17:48:07.910Z,23.63
2019-02-26T17:50:39.540Z,17.27
2019-02-26T17:53:09.552Z,28.63
2019-02-26T17:55:39.150Z,23.07
2019-02-26T17:58:10.608Z,17.70
2019-02-26T18:00:41.613Z,25.60
2019-02-26T18:03:11.131Z,21.10
2019-02-26T18:05:50.570Z,20.97
2019-02-26T18:08:11.831Z,16.80
2019-02-26T18:10:41.345Z,13.17
2019-02-26T18:13:10.851Z,16.60
2019-02-26T18:15:40.403Z,21.53
2019-02-26T18:18:09.919Z,16.60
2019-02-26T18:20:40.735Z,15.83
2019-02-26T18:23:10.424Z,18.50
2019-02-26T18:25:39.905Z,17.30
2019-02-26T18:28:09.421Z,21.03
2019-02-26T18:30:39.376Z,20.07
2019-02-26T18:33:08.886Z,33.57
2019-02-26T18:35:38.751Z,22.33
2019-02-26T18:38:08.282Z,18.17
2019-02-26T18:40:37.811Z,24.10
2019-02-26T18:43:07.292Z,20.17
2019-02-26T18:45:38.040Z,22.03
2019-02-26T18:48:07.540Z,29.67
2019-02-26T18:50:39.041Z,20.93
2019-02-26T18:53:08.669Z,21.63
2019-02-26T18:55:38.192Z,26.53
2019-02-26T18:58:07.706Z,19.37
2019-02-26T19:00:37.197Z,22.40
2019-02-26T19:03:09.375Z,45.20
2019-02-26T19:05:37.973Z,50.70
2019-02-26T19:08:07.749Z,23.10
2019-02-26T19:10:37.273Z,19.60
2019-02-26T19:13:06.822Z,20.33
2019-02-26T19:15:36.509Z,26.13
2019-02-26T19:18:06.016Z,23.60
2019-02-26T19:20:39.338Z,21.13
2019-02-26T19:23:09.016Z,25.80
2019-02-26T19:25:41.474Z,27.53
2019-02-26T19:28:09.932Z,23.67
2019-02-26T19:30:39.545Z,23.33
2019-02-26T19:33:09.064Z,25.97
2019-02-26T19:35:40.566Z,25.13
2019-02-26T19:38:10.453Z,23.40
2019-02-26T19:40:52.106Z,20.30
2019-02-26T19:43:23.782Z,17.90
2019-02-26T19:45:52.816Z,20.00
2019-02-26T19:48:22.312Z,23.07
2019-02-26T19:50:51.833Z,24.67
2019-02-26T19:53:21.325Z,29.07
2019-02-26T19:55:52.930Z,23.10
2019-02-26T19:58:23.097Z,27.60
2019-02-26T20:00:53.738Z,27.60
2019-02-26T20:03:23.393Z,25.40
2019-02-26T20:05:52.915Z,26.63
2019-02-26T20:08:22.439Z,25.63
2019-02-26T20:10:54.069Z,21.67
2019-02-26T20:13:24.766Z,26.80
2019-02-26T20:16:02.984Z,21.97
2019-02-26T20:18:48.324Z,25.20
2019-02-26T20:21:19.809Z,23.40
2019-02-26T20:23:49.365Z,20.27
2019-02-26T20:26:23.040Z,28.23
2019-02-26T20:29:09.436Z,18.80
2019-02-26T20:31:38.966Z,22.27
2019-02-26T20:34:08.466Z,22.50
2019-02-26T20:37:02.021Z,21.00
2019-02-26T20:39:35.461Z,20.47
2019-02-26T20:42:05.232Z,26.17
2019-02-26T20:44:34.737Z,25.17
2019-02-26T20:47:07.967Z,33.57
2019-02-26T20:49:37.437Z,28.37
2019-02-26T20:52:06.933Z,20.57
2019-02-26T20:54:36.446Z,26.73
2019-02-26T20:57:05.978Z,34.07
2019-02-26T20:59:35.484Z,26.77
2019-02-26T21:02:04.996Z,28.03
2019-02-26T21:04:34.552Z,27.87
2019-02-26T21:07:04.060Z,27.83
2019-02-26T21:09:33.836Z,29.57
2019-02-26T21:12:03.334Z,34.53
2019-02-26T21:14:32.881Z,32.33
2019-02-26T21:17:02.397Z,37.80
2019-02-26T21:19:35.535Z,43.67
2019-02-26T21:22:03.169Z,27.20
2019-02-26T21:24:34.633Z,33.90
2019-02-26T21:27:03.907Z,30.00
2019-02-26T21:29:38.678Z,32.13
2019-02-26T21:32:06.888Z,32.90
2019-02-26T21:34:36.393Z,30.27
2019-02-26T21:37:05.877Z,31.47
2019-02-26T21:39:35.407Z,35.80
2019-02-26T21:42:04.943Z,29.87
2019-02-26T21:44:34.456Z,32.67
2019-02-26T21:47:03.947Z,37.63
2019-02-26T21:49:33.454Z,31.77
2019-02-26T21:52:06.675Z,31.80
2019-02-26T21:54:34.215Z,35.37
2019-02-26T21:57:03.711Z,36.13
2019-02-26T21:59:33.316Z,42.10
2019-02-26T22:02:02.829Z,28.80
2019-02-26T22:04:32.441Z,29.73
2019-02-26T22:07:01.952Z,32.83
2019-02-26T22:09:31.562Z,32.13
2019-02-26T22:12:01.193Z,29.43
2019-02-26T22:14:30.725Z,30.53
2019-02-26T22:17:03.062Z,28.27
2019-02-26T22:19:32.607Z,32.77
2019-02-26T22:22:02.103Z,31.67
2019-02-26T22:24:31.667Z,33.57
2019-02-26T22:27:01.159Z,31.30
2019-02-26T22:29:30.647Z,36.80
2019-02-26T22:32:02.395Z,31.17
2019-02-26T22:34:31.362Z,28.77
2019-02-26T22:37:00.868Z,34.13
2019-02-26T22:39:30.749Z,32.70
2019-02-26T22:42:00.267Z,35.90
2019-02-26T22:44:29.800Z,36.37
2019-02-26T22:46:59.300Z,30.17
2019-02-26T22:49:28.852Z,31.00
2019-02-26T22:51:59.053Z,34.53
2019-02-26T22:54:28.633Z,35.30
2019-02-26T22:56:58.145Z,34.63
2019-02-26T22:59:27.932Z,34.07
2019-02-26T23:01:57.430Z,31.07
2019-02-26T23:04:26.904Z,33.07
2019-02-26T23:06:56.493Z,32.60
2019-02-26T23:09:27.484Z,34.20
2019-02-26T23:11:57.144Z,30.43
2019-02-26T23:14:27.272Z,36.37
2019-02-26T23:16:56.837Z,30.33
2019-02-26T23:19:26.441Z,36.77
2019-02-26T23:21:56.032Z,31.80
2019-02-26T23:24:27.765Z,41.47
2019-02-26T23:26:57.041Z,36.57
2019-02-26T23:29:28.113Z,35.57
2019-02-26T23:31:58.047Z,30.53
2019-02-26T23:34:27.640Z,36.37
2019-02-26T23:37:00.652Z,31.80
2019-02-26T23:39:28.497Z,35.63
2019-02-26T23:41:58.143Z,35.83
2019-02-26T23:44:27.683Z,33.23
2019-02-26T23:46:57.270Z,35.10
2019-02-26T23:49:26.940Z,32.47
2019-02-26T23:51:56.464Z,36.70
2019-02-26T23:54:26.203Z,36.37
2019-02-26T23:56:56.329Z,37.13
2019-02-26T23:59:25.848Z,36.37
